createdAt,value
2023-01-15T00:00:26.912Z,97549.00
2023-01-15T00:02:58.035Z,97539.00
2023-01-15T00:05:28.913Z,97534.00
2023-01-15T00:07:59.797Z,97525.00
2023-01-15T00:10:30.867Z,97523.00
2023-01-15T00:13:01.836Z,97515.00
2023-01-15T00:15:32.717Z,97514.00
2023-01-15T00:18:04.134Z,97501.00
2023-01-15T00:20:35.045Z,97500.00
2023-01-15T00:23:05.925Z,97495.00
2023-01-15T00:25:55.136Z,97503.00
2023-01-15T00:28:26.015Z,97505.00
2023-01-15T00:30:56.930Z,97499.00
2023-01-15T00:33:27.863Z,97492.00
2023-01-15T00:35:58.751Z,97490.00
2023-01-15T00:38:29.606Z,97474.00
2023-01-15T00:41:00.552Z,97481.00
2023-01-15T00:43:31.418Z,97459.00
2023-01-15T00:46:02.678Z,97449.00
2023-01-15T00:48:33.570Z,97451.00
2023-01-15T00:51:04.802Z,97457.00
2023-01-15T00:53:35.694Z,97453.00
2023-01-15T00:56:06.820Z,97449.00
2023-01-15T00:58:37.699Z,97438.00
2023-01-15T01:01:08.704Z,97430.00
2023-01-15T01:03:41.402Z,97424.00
2023-01-15T01:06:12.292Z,97429.00
2023-01-15T01:08:46.115Z,97418.00
2023-01-15T01:11:20.607Z,97420.00
2023-01-15T01:13:51.474Z,97419.00
2023-01-15T01:16:37.932Z,97429.00
2023-01-15T01:19:15.499Z,97417.00
2023-01-15T01:21:47.461Z,97427.00
2023-01-15T01:24:22.292Z,97426.00
2023-01-15T01:26:54.675Z,97433.00
2023-01-15T01:29:25.838Z,97426.00
2023-01-15T01:31:56.720Z,97421.00
2023-01-15T01:34:27.656Z,97416.00
2023-01-15T01:36:58.816Z,97425.00
2023-01-15T01:39:29.733Z,97422.00
2023-01-15T01:42:00.631Z,97413.00
2023-01-15T01:44:34.885Z,97420.00
2023-01-15T01:47:23.839Z,97409.00
2023-01-15T01:50:10.101Z,97396.00
2023-01-15T01:52:51.794Z,97404.00
2023-01-15T01:55:25.213Z,97397.00
2023-01-15T01:57:59.813Z,97392.00
2023-01-15T02:00:33.530Z,97388.00
2023-01-15T02:03:08.004Z,97374.00
2023-01-15T02:05:45.318Z,97375.00
2023-01-15T02:08:16.243Z,97386.00
2023-01-15T02:10:56.396Z,97384.00
2023-01-15T02:14:06.399Z,97366.00
2023-01-15T02:16:45.906Z,97362.00
2023-01-15T02:19:38.494Z,97360.00
2023-01-15T02:22:46.160Z,97346.00
2023-01-15T02:25:27.186Z,97356.00
2023-01-15T02:28:17.191Z,97351.00
2023-01-15T02:31:05.097Z,97347.00
2023-01-15T02:33:41.608Z,97350.00
2023-01-15T02:36:16.332Z,97344.00
2023-01-15T02:38:49.722Z,97326.00
2023-01-15T02:41:26.483Z,97341.00
2023-01-15T02:43:59.158Z,97357.00
2023-01-15T02:46:35.003Z,97354.00
2023-01-15T02:49:09.672Z,97335.00
2023-01-15T02:52:06.222Z,97353.00
2023-01-15T02:55:08.086Z,97341.00
2023-01-15T02:57:41.745Z,97336.00
2023-01-15T03:00:16.487Z,97339.00
2023-01-15T03:02:55.010Z,97336.00
2023-01-15T03:05:40.577Z,97330.00
2023-01-15T03:08:12.029Z,97333.00
2023-01-15T03:10:53.060Z,97327.00
2023-01-15T03:13:57.512Z,97316.00
2023-01-15T03:16:40.403Z,97324.00
2023-01-15T03:19:31.952Z,97326.00
2023-01-15T03:22:29.470Z,97315.00
2023-01-15T03:25:06.655Z,97309.00
2023-01-15T03:27:37.663Z,97304.00
2023-01-15T03:30:14.923Z,97308.00
2023-01-15T03:32:46.362Z,97301.00
2023-01-15T03:35:52.806Z,97298.00
2023-01-15T03:38:35.396Z,97300.00
2023-01-15T03:41:21.255Z,97297.00
2023-01-15T03:44:16.303Z,97290.00
2023-01-15T03:47:27.236Z,97285.00
2023-01-15T03:50:16.092Z,97282.00
2023-01-15T03:53:01.772Z,97294.00
2023-01-15T03:55:59.961Z,97291.00
2023-01-15T03:58:46.050Z,97280.00
2023-01-15T04:01:23.482Z,97283.00
2023-01-15T04:03:56.056Z,97297.00
2023-01-15T04:06:32.503Z,97285.00
2023-01-15T04:09:08.378Z,97286.00
2023-01-15T04:11:39.339Z,97277.00
2023-01-15T04:14:14.427Z,97259.00
2023-01-15T04:16:45.310Z,97263.00
2023-01-15T04:19:16.225Z,97256.00
2023-01-15T04:21:47.148Z,97270.00
2023-01-15T04:24:18.062Z,97266.00
2023-01-15T04:26:48.933Z,97243.00
2023-01-15T04:29:20.046Z,97241.00
2023-01-15T04:31:53.627Z,97241.00
2023-01-15T04:34:28.903Z,97239.00
2023-01-15T04:36:59.845Z,97238.00
2023-01-15T04:39:30.917Z,97232.00
2023-01-15T04:42:20.647Z,97236.00
2023-01-15T04:44:51.621Z,97243.00
2023-01-15T04:47:22.494Z,97241.00
2023-01-15T04:49:56.014Z,97239.00
2023-01-15T04:52:26.923Z,97243.00
2023-01-15T04:54:57.825Z,97244.00
2023-01-15T04:57:28.727Z,97234.00
2023-01-15T04:59:59.654Z,97239.00
2023-01-15T05:02:30.618Z,97235.00
2023-01-15T05:05:01.652Z,97233.00
2023-01-15T05:07:32.592Z,97229.00
2023-01-15T05:10:03.798Z,97223.00
2023-01-15T05:12:34.656Z,97240.00
2023-01-15T05:15:06.508Z,97240.00
2023-01-15T05:17:37.375Z,97252.00
2023-01-15T05:20:09.309Z,97270.00
2023-01-15T05:22:40.169Z,97307.00
2023-01-15T05:25:11.163Z,97336.00
2023-01-15T05:27:42.767Z,97375.00
2023-01-15T05:30:14.466Z,97360.00
2023-01-15T05:32:45.306Z,97376.00
2023-01-15T05:35:16.367Z,97388.00
2023-01-15T05:37:47.200Z,97368.00
2023-01-15T05:40:18.201Z,97391.00
2023-01-15T05:42:49.063Z,97379.00
2023-01-15T05:45:19.961Z,97382.00
2023-01-15T05:47:53.753Z,97381.00
2023-01-15T05:50:24.662Z,97382.00
2023-01-15T05:52:56.635Z,97380.00
2023-01-15T05:55:27.549Z,97394.00
2023-01-15T05:57:58.535Z,97387.00
2023-01-15T06:00:30.580Z,97417.00
2023-01-15T06:03:01.669Z,97417.00
2023-01-15T06:05:32.577Z,97415.00
2023-01-15T06:08:03.526Z,97398.00
2023-01-15T06:10:34.409Z,97405.00
2023-01-15T06:13:05.274Z,97409.00
2023-01-15T06:15:36.171Z,97417.00
2023-01-15T06:18:07.251Z,97410.00
2023-01-15T06:20:39.794Z,97420.00
2023-01-15T06:23:10.742Z,97416.00
2023-01-15T06:25:41.590Z,97439.00
2023-01-15T06:28:12.527Z,97428.00
2023-01-15T06:30:43.501Z,97434.00
2023-01-15T06:33:14.337Z,97445.00
2023-01-15T06:35:45.243Z,97440.00
2023-01-15T06:38:16.284Z,97455.00
2023-01-15T06:40:47.182Z,97464.00
2023-01-15T06:43:36.710Z,97471.00
2023-01-15T06:46:27.767Z,97471.00
2023-01-15T06:49:00.044Z,97488.00
2023-01-15T06:51:31.328Z,97498.00
2023-01-15T06:54:02.300Z,97488.00
2023-01-15T06:56:33.240Z,97511.00
2023-01-15T06:59:04.312Z,97516.00
2023-01-15T07:01:35.231Z,97525.00
2023-01-15T07:04:06.159Z,97528.00
2023-01-15T07:06:37.179Z,97544.00
2023-01-15T07:09:08.086Z,97552.00
2023-01-15T07:11:49.635Z,97581.00
2023-01-15T07:14:26.763Z,97581.00
2023-01-15T07:16:59.263Z,97594.00
2023-01-15T07:19:30.343Z,97595.00
2023-01-15T07:22:01.377Z,97595.00
2023-01-15T07:24:32.561Z,97596.00
2023-01-15T07:27:03.707Z,97609.00
2023-01-15T07:29:34.927Z,97603.00
2023-01-15T07:32:06.543Z,97634.00
2023-01-15T07:34:37.413Z,97619.00
2023-01-15T07:37:08.274Z,97624.00
2023-01-15T07:39:39.164Z,97622.00
2023-01-15T07:42:29.511Z,97641.00
2023-01-15T07:45:19.044Z,97642.00
2023-01-15T07:48:08.548Z,97619.00
2023-01-15T07:50:40.539Z,97612.00
2023-01-15T07:53:11.431Z,97617.00
2023-01-15T07:55:42.386Z,97630.00
2023-01-15T07:58:20.695Z,97651.00
2023-01-15T08:00:51.624Z,97663.00
2023-01-15T08:03:22.508Z,97650.00
2023-01-15T08:05:54.710Z,97666.00
2023-01-15T08:08:26.433Z,97686.00
2023-01-15T08:11:20.695Z,97679.00
2023-01-15T08:14:10.149Z,97690.00
2023-01-15T08:16:41.045Z,97688.00
2023-01-15T08:19:11.920Z,97703.00
2023-01-15T08:21:42.791Z,97691.00
2023-01-15T08:24:13.856Z,97695.00
2023-01-15T08:26:44.711Z,97698.00
2023-01-15T08:29:15.635Z,97690.00
2023-01-15T08:31:46.835Z,97718.00
2023-01-15T08:34:19.207Z,97692.00
2023-01-15T08:36:53.088Z,97700.00
2023-01-15T08:39:24.000Z,97712.00
2023-01-15T08:41:56.577Z,97726.00
2023-01-15T08:44:27.554Z,97723.00
2023-01-15T08:46:58.475Z,97727.00
2023-01-15T08:49:30.586Z,97736.00
2023-01-15T08:52:01.429Z,97766.00
2023-01-15T08:54:32.431Z,97760.00
2023-01-15T08:57:03.367Z,97770.00
2023-01-15T08:59:34.279Z,97777.00
2023-01-15T09:02:05.326Z,97779.00
2023-01-15T09:04:36.690Z,97781.00
2023-01-15T09:07:11.785Z,97789.00
2023-01-15T09:09:42.674Z,97790.00
2023-01-15T09:12:14.256Z,97787.00
2023-01-15T09:14:55.976Z,97779.00
2023-01-15T09:17:33.037Z,97777.00
2023-01-15T09:20:04.753Z,97770.00
2023-01-15T09:22:35.864Z,97791.00
2023-01-15T09:25:07.786Z,97799.00
2023-01-15T09:27:38.649Z,97806.00
2023-01-15T09:30:18.087Z,97807.00
2023-01-15T09:32:49.373Z,97821.00
2023-01-15T09:35:20.365Z,97836.00
2023-01-15T09:37:54.891Z,97836.00
2023-01-15T09:40:46.416Z,97845.00
2023-01-15T09:43:50.734Z,97844.00
2023-01-15T09:46:53.898Z,97844.00
2023-01-15T09:49:37.752Z,97838.00
2023-01-15T09:52:37.959Z,97854.00
2023-01-15T09:55:37.208Z,97854.00
2023-01-15T09:58:12.264Z,97851.00
2023-01-15T10:00:49.811Z,97846.00
2023-01-15T10:03:43.058Z,97860.00
2023-01-15T10:06:23.060Z,97872.00
2023-01-15T10:09:11.576Z,97881.00
2023-01-15T10:12:17.880Z,97886.00
2023-01-15T10:15:21.231Z,97881.00
2023-01-15T10:17:57.520Z,97885.00
2023-01-15T10:21:07.574Z,97879.00
2023-01-15T10:24:02.950Z,97886.00
2023-01-15T10:26:40.874Z,97905.00
2023-01-15T10:29:17.349Z,97907.00
2023-01-15T10:32:10.597Z,97923.00
2023-01-15T10:35:17.280Z,97930.00
2023-01-15T10:38:12.888Z,97934.00
2023-01-15T10:41:25.248Z,97918.00
2023-01-15T10:44:11.660Z,97921.00
2023-01-15T10:46:52.810Z,97929.00
2023-01-15T10:49:29.442Z,97930.00
2023-01-15T10:52:18.499Z,97952.00
2023-01-15T10:55:07.088Z,97945.00
2023-01-15T10:57:56.448Z,97961.00
2023-01-15T11:00:33.202Z,97975.00
2023-01-15T11:03:15.408Z,97962.00
2023-01-15T11:05:47.096Z,97955.00
2023-01-15T11:11:54.067Z,97981.00
2023-01-15T11:15:02.945Z,97982.00
2023-01-15T11:18:10.867Z,97988.00
2023-01-15T11:20:46.801Z,97976.00
2023-01-15T11:23:21.621Z,97996.00
2023-01-15T11:25:56.141Z,98009.00
2023-01-15T11:28:43.068Z,97994.00
2023-01-15T11:31:15.520Z,98018.00
2023-01-15T11:34:01.051Z,98007.00
2023-01-15T11:36:33.585Z,98013.00
2023-01-15T11:39:04.475Z,98011.00
2023-01-15T11:41:55.187Z,98028.00
2023-01-15T11:44:44.793Z,98015.00
2023-01-15T11:47:38.645Z,98015.00
2023-01-15T11:50:37.880Z,98008.00
2023-01-15T11:53:24.388Z,98005.00
2023-01-15T11:56:03.565Z,97997.00
2023-01-15T11:58:43.238Z,98017.00
2023-01-15T12:01:23.877Z,98015.00
2023-01-15T12:03:56.279Z,98002.00
2023-01-15T12:06:30.234Z,98004.00
2023-01-15T12:09:29.129Z,98008.00
2023-01-15T12:12:36.715Z,98017.00
2023-01-15T12:15:31.802Z,98006.00
2023-01-15T12:18:44.099Z,98042.00
2023-01-15T12:21:24.418Z,98022.00
2023-01-15T12:24:34.876Z,98004.00
2023-01-15T12:27:18.705Z,98011.00
2023-01-15T12:30:27.371Z,98025.00
2023-01-15T12:33:18.975Z,98006.00
2023-01-15T12:36:03.740Z,97999.00
2023-01-15T12:39:04.403Z,97986.00
2023-01-15T12:41:57.761Z,97977.00
2023-01-15T12:45:01.476Z,97976.00
2023-01-15T12:47:39.927Z,97996.00
2023-01-15T12:50:45.567Z,97986.00
2023-01-15T12:53:21.595Z,97992.00
2023-01-15T12:56:17.494Z,98000.00
2023-01-15T12:59:14.890Z,98005.00
2023-01-15T13:02:39.352Z,98016.00
2023-01-15T13:05:31.110Z,98005.00
2023-01-15T13:08:28.138Z,98021.00
2023-01-15T13:10:59.227Z,98017.00
2023-01-15T13:13:40.766Z,98026.00
2023-01-15T13:16:33.907Z,98013.00
2023-01-15T13:19:29.814Z,98016.00
2023-01-15T13:22:09.165Z,98023.00
2023-01-15T13:25:06.115Z,98026.00
2023-01-15T13:28:00.707Z,98017.00
2023-01-15T13:31:07.344Z,98017.00
2023-01-15T13:33:53.261Z,98022.00
2023-01-15T13:36:40.658Z,98026.00
2023-01-15T13:39:25.172Z,98039.00
2023-01-15T13:42:15.079Z,98034.00
2023-01-15T13:44:52.178Z,98045.00
2023-01-15T13:47:28.576Z,98060.00
2023-01-15T13:50:04.873Z,98061.00
2023-01-15T13:52:37.520Z,98043.00
2023-01-15T13:55:38.682Z,98044.00
2023-01-15T13:58:30.906Z,98054.00
2023-01-15T14:01:20.733Z,98056.00
2023-01-15T14:04:10.630Z,98053.00
2023-01-15T14:06:46.503Z,98061.00
2023-01-15T14:09:23.618Z,98055.00
2023-01-15T14:12:14.054Z,98050.00
2023-01-15T14:15:09.101Z,98051.00
2023-01-15T14:18:26.476Z,98056.00
2023-01-15T14:21:27.733Z,98064.00
2023-01-15T14:24:14.909Z,98071.00
2023-01-15T14:26:54.440Z,98071.00
2023-01-15T14:29:51.872Z,98079.00
2023-01-15T14:32:51.293Z,98080.00
2023-01-15T14:35:24.467Z,98087.00
2023-01-15T14:38:03.223Z,98085.00
2023-01-15T14:40:36.456Z,98078.00
2023-01-15T14:43:17.823Z,98097.00
2023-01-15T14:45:50.733Z,98078.00
2023-01-15T14:48:30.965Z,98077.00
2023-01-15T14:51:15.909Z,98070.00
2023-01-15T14:53:56.031Z,98066.00
2023-01-15T14:56:44.310Z,98067.00
2023-01-15T14:59:21.234Z,98082.00
2023-01-15T15:01:58.129Z,98082.00
2023-01-15T15:04:52.064Z,98083.00
2023-01-15T15:07:26.877Z,98105.00
2023-01-15T15:10:19.314Z,98067.00
2023-01-15T15:13:03.084Z,98074.00
2023-01-15T15:15:50.574Z,98072.00
2023-01-15T15:18:36.241Z,98088.00
2023-01-15T15:21:27.932Z,98091.00
2023-01-15T15:24:29.057Z,98089.00
2023-01-15T15:27:24.234Z,98100.00
2023-01-15T15:30:07.708Z,98106.00
2023-01-15T15:32:43.130Z,98110.00
2023-01-15T15:35:35.748Z,98109.00
2023-01-15T15:38:06.739Z,98113.00
2023-01-15T15:40:49.386Z,98120.00
2023-01-15T15:44:05.673Z,98105.00
2023-01-15T15:46:55.433Z,98110.00
2023-01-15T15:49:26.391Z,98108.00
2023-01-15T15:51:57.298Z,98101.00
2023-01-15T15:54:35.844Z,98098.00
2023-01-15T15:57:14.854Z,98090.00
2023-01-15T15:59:50.609Z,98088.00
2023-01-15T16:02:36.219Z,98081.00
2023-01-15T16:05:19.208Z,98085.00
2023-01-15T16:07:51.056Z,98075.00
2023-01-15T16:10:34.487Z,98079.00
2023-01-15T16:13:12.422Z,98066.00
2023-01-15T16:15:50.865Z,98077.00
2023-01-15T16:18:34.853Z,98077.00
2023-01-15T16:21:08.749Z,98088.00
2023-01-15T16:23:40.337Z,98094.00
2023-01-15T16:26:21.554Z,98081.00
2023-01-15T16:29:00.552Z,98084.00
2023-01-15T16:31:36.643Z,98075.00
2023-01-15T16:34:37.206Z,98085.00
2023-01-15T16:37:30.592Z,98082.00
2023-01-15T16:40:04.961Z,98083.00
2023-01-15T16:42:43.767Z,98077.00
2023-01-15T16:45:27.935Z,98085.00
2023-01-15T16:48:07.943Z,98078.00
2023-01-15T16:50:42.450Z,98085.00
2023-01-15T16:53:45.633Z,98096.00
2023-01-15T16:56:39.883Z,98082.00
2023-01-15T16:59:56.019Z,98068.00
2023-01-15T17:02:44.191Z,98108.00
2023-01-15T17:05:22.136Z,98068.00
2023-01-15T17:07:55.866Z,98063.00
2023-01-15T17:10:32.789Z,98064.00
2023-01-15T17:13:03.738Z,98057.00
2023-01-15T17:15:41.245Z,98068.00
2023-01-15T17:18:27.219Z,98068.00
2023-01-15T17:20:59.974Z,98057.00
2023-01-15T17:23:40.946Z,98074.00
2023-01-15T17:26:19.603Z,98060.00
2023-01-15T17:28:53.391Z,98060.00
2023-01-15T17:31:36.344Z,98051.00
2023-01-15T17:34:07.392Z,98048.00
2023-01-15T17:36:38.868Z,98039.00
2023-01-15T17:39:13.350Z,98036.00
2023-01-15T17:41:46.567Z,98029.00
2023-01-15T17:44:17.522Z,98028.00
2023-01-15T17:46:49.355Z,98024.00
2023-01-15T17:49:25.457Z,98022.00
2023-01-15T17:51:59.367Z,98029.00
2023-01-15T17:54:48.488Z,98027.00
2023-01-15T17:57:37.957Z,98035.00
2023-01-15T18:00:31.672Z,98016.00
2023-01-15T18:03:21.503Z,98017.00
2023-01-15T18:05:54.916Z,98005.00
2023-01-15T18:08:27.602Z,98016.00
2023-01-15T18:11:05.829Z,98016.00
2023-01-15T18:13:36.752Z,98006.00
2023-01-15T18:16:08.642Z,98000.00
2023-01-15T18:18:39.739Z,98004.00
2023-01-15T18:21:10.781Z,98000.00
2023-01-15T18:23:41.704Z,97998.00
2023-01-15T18:26:12.623Z,97998.00
2023-01-15T18:28:49.868Z,97993.00
2023-01-15T18:31:20.906Z,98001.00
2023-01-15T18:33:51.808Z,97976.00
2023-01-15T18:36:23.823Z,97985.00
2023-01-15T18:38:55.769Z,97972.00
2023-01-15T18:41:43.427Z,97983.00
2023-01-15T18:44:36.598Z,97980.00
2023-01-15T18:47:15.519Z,97977.00
2023-01-15T18:49:49.403Z,97974.00
2023-01-15T18:52:39.064Z,97978.00
2023-01-15T18:55:10.289Z,97980.00
2023-01-15T18:57:41.224Z,97984.00
2023-01-15T19:00:12.949Z,97978.00
2023-01-15T19:02:47.399Z,97981.00
2023-01-15T19:05:21.024Z,97979.00
2023-01-15T19:07:52.159Z,97986.00
2023-01-15T19:10:25.066Z,97978.00
2023-01-15T19:12:56.004Z,97981.00
2023-01-15T19:15:45.485Z,97984.00
2023-01-15T19:18:37.581Z,97960.00
2023-01-15T19:21:13.060Z,97966.00
2023-01-15T19:23:43.911Z,97969.00
2023-01-15T19:26:17.752Z,97958.00
2023-01-15T19:28:48.707Z,97948.00
2023-01-15T19:31:39.273Z,97933.00
2023-01-15T19:34:32.746Z,97930.00
2023-01-15T19:37:02.653Z,97925.00
2023-01-15T19:39:33.615Z,97918.00
2023-01-15T19:42:23.303Z,97911.00
2023-01-15T19:45:12.555Z,97907.00
2023-01-15T19:48:02.808Z,97913.00
2023-01-15T19:50:44.328Z,97909.00
2023-01-15T19:53:15.210Z,97904.00
2023-01-15T19:55:46.341Z,97924.00
2023-01-15T19:58:17.351Z,97918.00
2023-01-15T20:00:49.191Z,97910.00
2023-01-15T20:03:20.173Z,97897.00
2023-01-15T20:05:51.096Z,97900.00
2023-01-15T20:08:22.414Z,97887.00
2023-01-15T20:10:53.349Z,97892.00
2023-01-15T20:13:43.351Z,97891.00
2023-01-15T20:16:19.840Z,97892.00
2023-01-15T20:18:52.134Z,97874.00
2023-01-15T20:21:23.217Z,97865.00
2023-01-15T20:23:54.118Z,97861.00
2023-01-15T20:26:26.446Z,97880.00
2023-01-15T20:28:57.309Z,97850.00
2023-01-15T20:31:28.282Z,97851.00
2023-01-15T20:34:02.077Z,97843.00
2023-01-15T20:36:34.811Z,97846.00
2023-01-15T20:39:05.674Z,97844.00
2023-01-15T20:41:54.919Z,97836.00
2023-01-15T20:44:44.755Z,97842.00
2023-01-15T20:47:35.900Z,97833.00
2023-01-15T20:50:09.504Z,97822.00
2023-01-15T20:52:45.377Z,97837.00
2023-01-15T20:55:18.078Z,97821.00
2023-01-15T20:57:49.144Z,97825.00
2023-01-15T21:00:22.989Z,97840.00
2023-01-15T21:02:57.719Z,97838.00
2023-01-15T21:05:31.163Z,97828.00
2023-01-15T21:08:02.092Z,97830.00
2023-01-15T21:10:33.082Z,97826.00
2023-01-15T21:13:04.779Z,97821.00
2023-01-15T21:15:35.978Z,97807.00
2023-01-15T21:18:06.878Z,97818.00
2023-01-15T21:20:39.351Z,97831.00
2023-01-15T21:23:10.224Z,97823.00
2023-01-15T21:25:42.301Z,97814.00
2023-01-15T21:28:13.278Z,97817.00
2023-01-15T21:30:44.898Z,97816.00
2023-01-15T21:33:15.752Z,97808.00
2023-01-15T21:35:46.745Z,97799.00
2023-01-15T21:38:17.894Z,97802.00
2023-01-15T21:40:48.858Z,97802.00
2023-01-15T21:43:38.292Z,97803.00
2023-01-15T21:46:09.360Z,97798.00
2023-01-15T21:48:40.289Z,97794.00
2023-01-15T21:51:11.168Z,97799.00
2023-01-15T21:53:42.035Z,97788.00
2023-01-15T21:56:12.961Z,97789.00
2023-01-15T21:58:45.937Z,97789.00
2023-01-15T22:01:18.271Z,97780.00
2023-01-15T22:03:49.215Z,97780.00
2023-01-15T22:06:20.077Z,97770.00
2023-01-15T22:08:55.091Z,97762.00
2023-01-15T22:11:45.383Z,97759.00
2023-01-15T22:14:19.267Z,97756.00
2023-01-15T22:16:55.844Z,97741.00
2023-01-15T22:19:29.237Z,97747.00
2023-01-15T22:22:08.460Z,97736.00
2023-01-15T22:24:41.213Z,97745.00
2023-01-15T22:27:16.133Z,97754.00
2023-01-15T22:29:49.476Z,97747.00
2023-01-15T22:32:20.415Z,97743.00
2023-01-15T22:34:52.072Z,97716.00
2023-01-15T22:37:22.955Z,97752.00
2023-01-15T22:39:53.983Z,97722.00
2023-01-15T22:42:24.904Z,97708.00
2023-01-15T22:44:57.253Z,97701.00
2023-01-15T22:47:29.259Z,97709.00
2023-01-15T22:50:00.199Z,97723.00
2023-01-15T22:52:31.185Z,97694.00
2023-01-15T22:55:02.200Z,97683.00
2023-01-15T22:57:33.974Z,97684.00
2023-01-15T23:00:07.381Z,97688.00
2023-01-15T23:02:56.378Z,97690.00
2023-01-15T23:05:27.277Z,97674.00
2023-01-15T23:07:58.176Z,97661.00
2023-01-15T23:10:29.093Z,97658.00
2023-01-15T23:13:00.000Z,97657.00
2023-01-15T23:15:30.961Z,97646.00
2023-01-15T23:18:01.831Z,97641.00
2023-01-15T23:20:32.810Z,97632.00
2023-01-15T23:23:03.765Z,97625.00
2023-01-15T23:25:34.623Z,97640.00
2023-01-15T23:28:05.616Z,97625.00
2023-01-15T23:30:36.527Z,97632.00
2023-01-15T23:33:08.273Z,97618.00
2023-01-15T23:35:39.151Z,97617.00
2023-01-15T23:38:10.006Z,97621.00
2023-01-15T23:40:42.758Z,97623.00
2023-01-15T23:43:34.702Z,97619.00
2023-01-15T23:46:26.157Z,97622.00
2023-01-15T23:48:57.035Z,97625.00
2023-01-15T23:51:28.018Z,97614.00
2023-01-15T23:54:00.291Z,97603.00
2023-01-15T23:56:33.092Z,97606.00
2023-01-15T23:59:03.951Z,97595.00
